Time;durP1;ratioP1;P1;durP2;ratioP2;P2;SDS_P1;SDS_P2;PMS_P1;PMS_P2;Temp;Humidity;BMP_temperature;BMP_pressure;BME280_temperature;BME280_humidity;BME280_pressure;Samples;Min_cycle;Max_cycle;Signal;HPM_P1;HPM_P2
2023/02/07 00:01:18;;;;;;;64.37;18.93;;;;;;;;;;5030569;28;20301;-68
2023/02/07 00:03:44;;;;;;;61.67;17.73;;;;;;;;;;5036075;28;20719;-69
2023/02/07 00:06:19;;;;;;;64.73;19.33;;;;;;;;;;5044906;28;20668;-68
2023/02/07 00:08:44;;;;;;;85.33;21.37;;;;;;;;;;5042084;28;20188;-68
2023/02/07 00:11:15;;;;;;;75.07;21.50;;;;;;;;;;5027540;28;20661;-68
2023/02/07 00:13:41;;;;;;;70.33;22.20;;;;;;;;;;5025284;28;20186;-68
2023/02/07 00:16:07;;;;;;;84.87;23.77;;;;;;;;;;5032340;28;20664;-68
2023/02/07 00:18:33;;;;;;;79.77;23.33;;;;;;;;;;5017504;28;20190;-68
2023/02/07 00:21:01;;;;;;;70.73;23.73;;;;;;;;;;5029602;28;20259;-68
2023/02/07 00:23:27;;;;;;;72.60;22.43;;;;;;;;;;5041420;28;20629;-68
2023/02/07 00:25:53;;;;;;;79.40;23.63;;;;;;;;;;5037827;28;20240;-69
2023/02/07 00:28:18;;;;;;;75.63;23.77;;;;;;;;;;5027675;28;20584;-68
2023/02/07 00:30:43;;;;;;;80.33;23.53;;;;;;;;;;5025746;28;20204;-69
2023/02/07 00:33:09;;;;;;;70.00;22.83;;;;;;;;;;5028190;28;20229;-68
2023/02/07 00:35:34;;;;;;;70.37;22.27;;;;;;;;;;5024904;28;20201;-68
2023/02/07 00:37:59;;;;;;;77.13;23.07;;;;;;;;;;5032533;28;20193;-68
2023/02/07 00:40:25;;;;;;;67.37;22.37;;;;;;;;;;5030658;28;20669;-68
2023/02/07 00:42:50;;;;;;;74.87;22.47;;;;;;;;;;5025069;28;20183;-68
2023/02/07 00:45:16;;;;;;;62.97;22.13;;;;;;;;;;5030699;28;20312;-68
2023/02/07 00:47:41;;;;;;;69.97;23.83;;;;;;;;;;5042285;28;20266;-68
2023/02/07 00:50:07;;;;;;;77.83;23.10;;;;;;;;;;5026345;28;20194;-68
2023/02/07 00:52:32;;;;;;;68.33;23.57;;;;;;;;;;5030992;28;20664;-68
2023/02/07 00:54:57;;;;;;;74.40;24.83;;;;;;;;;;5021595;28;20206;-68
2023/02/07 00:57:23;;;;;;;74.83;24.37;;;;;;;;;;5049156;28;20192;-68
2023/02/07 00:59:48;;;;;;;83.33;24.47;;;;;;;;;;5030313;28;20263;-68
2023/02/07 01:02:13;;;;;;;73.30;24.53;;;;;;;;;;5043660;28;20190;-68
2023/02/07 01:04:39;;;;;;;72.37;23.47;;;;;;;;;;5025962;28;20225;-68
2023/02/07 01:07:04;;;;;;;81.57;25.40;;;;;;;;;;5034193;28;20182;-68
2023/02/07 01:09:30;;;;;;;76.40;23.10;;;;;;;;;;5019967;28;20436;-68
2023/02/07 01:11:55;;;;;;;81.13;24.77;;;;;;;;;;5011984;28;20205;-68
2023/02/07 01:14:20;;;;;;;78.20;24.77;;;;;;;;;;5030718;28;20683;-68
2023/02/07 01:16:46;;;;;;;74.27;23.03;;;;;;;;;;5036598;28;20186;-68
2023/02/07 01:19:11;;;;;;;73.50;24.70;;;;;;;;;;5035334;28;20273;-68
2023/02/07 01:21:37;;;;;;;76.47;25.07;;;;;;;;;;5033544;28;20190;-68
2023/02/07 01:24:03;;;;;;;77.10;23.77;;;;;;;;;;5018260;28;20222;-68
2023/02/07 01:26:28;;;;;;;79.17;24.37;;;;;;;;;;5027025;28;20264;-68
2023/02/07 01:28:55;;;;;;;71.60;23.47;;;;;;;;;;5028469;28;20179;-68
2023/02/07 01:31:21;;;;;;;67.10;22.20;;;;;;;;;;5028481;28;20190;-68
2023/02/07 01:33:46;;;;;;;73.13;23.73;;;;;;;;;;5025046;28;20623;-68
2023/02/07 01:36:14;;;;;;;63.43;21.70;;;;;;;;;;5029166;28;20190;-68
2023/02/07 01:38:41;;;;;;;65.97;21.67;;;;;;;;;;5022007;28;20191;-68
2023/02/07 01:41:07;;;;;;;78.40;22.60;;;;;;;;;;5027991;28;20258;-68
2023/02/07 01:43:34;;;;;;;66.17;21.97;;;;;;;;;;5022046;28;20189;-68
2023/02/07 01:45:59;;;;;;;63.17;22.03;;;;;;;;;;5019721;28;20221;-68
2023/02/07 01:48:31;;;;;;;66.53;22.37;;;;;;;;;;5028453;28;20654;-68
2023/02/07 01:51:03;;;;;;;66.60;21.90;;;;;;;;;;5039811;28;20272;-68
2023/02/07 01:53:30;;;;;;;64.50;21.80;;;;;;;;;;5029818;28;20661;-69
2023/02/07 01:55:58;;;;;;;64.03;21.30;;;;;;;;;;5015075;28;20202;-68
2023/02/07 01:58:24;;;;;;;57.70;21.57;;;;;;;;;;5022205;28;20213;-68
2023/02/07 02:00:50;;;;;;;69.73;20.90;;;;;;;;;;5022233;28;20285;-68
2023/02/07 02:03:15;;;;;;;53.70;20.27;;;;;;;;;;5026163;28;20197;-68
2023/02/07 02:05:42;;;;;;;56.33;20.80;;;;;;;;;;5029014;28;20209;-68
2023/02/07 02:08:08;;;;;;;53.77;20.00;;;;;;;;;;5027290;28;20194;-68
2023/02/07 02:10:56;;;;;;;53.50;20.33;;;;;;;;;;5028557;28;20554;-68
2023/02/07 02:13:43;;;;;;;65.17;21.40;;;;;;;;;;5014778;28;20183;-69
2023/02/07 02:16:20;;;;;;;58.47;20.17;;;;;;;;;;5040286;28;20295;-68
2023/02/07 02:19:13;;;;;;;53.33;19.70;;;;;;;;;;5035795;28;20210;-68
2023/02/07 02:22:10;;;;;;;61.97;19.60;;;;;;;;;;5026800;28;20243;-68
2023/02/07 02:25:13;;;;;;;56.47;18.97;;;;;;;;;;5029609;28;20278;-68
2023/02/07 02:27:45;;;;;;;53.53;19.23;;;;;;;;;;5029322;28;20192;-68
2023/02/07 02:30:19;;;;;;;55.53;18.43;;;;;;;;;;5028518;28;20277;-68
2023/02/07 02:33:18;;;;;;;56.40;18.17;;;;;;;;;;5024864;28;20260;-68
2023/02/07 02:36:27;;;;;;;54.60;19.77;;;;;;;;;;5012205;28;20289;-69
2023/02/07 02:39:12;;;;;;;56.50;16.93;;;;;;;;;;5021785;28;20340;-68
2023/02/07 02:41:46;;;;;;;55.50;18.90;;;;;;;;;;5024911;28;20197;-68
2023/02/07 02:44:23;;;;;;;54.27;18.43;;;;;;;;;;5026500;28;20551;-68
2023/02/07 02:46:52;;;;;;;51.30;18.63;;;;;;;;;;5025205;28;20209;-68
2023/02/07 02:49:19;;;;;;;46.97;17.37;;;;;;;;;;5026351;28;20297;-69
2023/02/07 02:51:49;;;;;;;52.13;17.87;;;;;;;;;;5027594;28;20201;-69
2023/02/07 02:54:28;;;;;;;56.80;18.83;;;;;;;;;;5025080;28;20190;-69
2023/02/07 02:57:31;;;;;;;58.47;19.20;;;;;;;;;;5027012;28;20189;-69
2023/02/07 03:00:22;;;;;;;52.87;17.90;;;;;;;;;;5017228;28;20564;-69
2023/02/07 03:03:07;;;;;;;55.90;18.40;;;;;;;;;;5021924;28;20187;-69
2023/02/07 03:05:51;;;;;;;47.83;17.93;;;;;;;;;;5020227;28;20267;-69
2023/02/07 03:08:38;;;;;;;53.23;18.80;;;;;;;;;;5027090;28;20198;-69
2023/02/07 03:11:16;;;;;;;49.13;18.07;;;;;;;;;;5023582;28;20198;-69
2023/02/07 03:14:04;;;;;;;54.17;17.87;;;;;;;;;;5026099;28;20392;-69
2023/02/07 03:16:51;;;;;;;51.17;17.13;;;;;;;;;;5028677;28;20658;-69
2023/02/07 03:19:49;;;;;;;51.87;17.20;;;;;;;;;;5021414;28;20187;-69
2023/02/07 03:22:20;;;;;;;50.23;17.57;;;;;;;;;;5022077;28;20202;-69
2023/02/07 03:24:52;;;;;;;48.67;17.37;;;;;;;;;;5030663;28;20214;-69
2023/02/07 03:27:19;;;;;;;50.73;18.27;;;;;;;;;;5025930;28;20285;-69
2023/02/07 03:29:47;;;;;;;49.03;16.73;;;;;;;;;;5025349;28;20657;-69
2023/02/07 03:32:15;;;;;;;56.83;18.13;;;;;;;;;;5024275;28;20194;-69
2023/02/07 03:34:46;;;;;;;46.47;16.67;;;;;;;;;;5028114;28;20292;-69
2023/02/07 03:37:22;;;;;;;53.77;16.90;;;;;;;;;;5031939;28;20194;-69
2023/02/07 03:39:48;;;;;;;56.10;17.57;;;;;;;;;;5010243;28;20201;-69
2023/02/07 03:42:19;;;;;;;55.77;18.67;;;;;;;;;;5028006;28;20190;-69
2023/02/07 03:44:47;;;;;;;61.87;17.77;;;;;;;;;;5035592;28;20214;-69
2023/02/07 03:47:16;;;;;;;59.63;18.50;;;;;;;;;;5028577;28;20698;-70
2023/02/07 03:49:41;;;;;;;52.93;19.00;;;;;;;;;;5022454;28;20428;-69
2023/02/07 03:52:07;;;;;;;50.43;16.93;;;;;;;;;;5028787;28;20277;-69
2023/02/07 03:54:32;;;;;;;49.93;16.47;;;;;;;;;;5035027;28;20328;-69
2023/02/07 03:56:58;;;;;;;48.40;16.80;;;;;;;;;;5038542;28;20514;-69
2023/02/07 03:59:23;;;;;;;47.43;16.87;;;;;;;;;;5018670;28;20610;-69
2023/02/07 04:01:49;;;;;;;48.90;17.43;;;;;;;;;;5026028;28;20506;-69
2023/02/07 04:04:14;;;;;;;47.00;16.07;;;;;;;;;;5019113;28;20215;-69
2023/02/07 04:06:39;;;;;;;56.90;17.27;;;;;;;;;;5027669;28;20201;-69
2023/02/07 04:09:05;;;;;;;45.30;17.33;;;;;;;;;;5038097;28;20183;-69
2023/02/07 04:11:30;;;;;;;51.80;16.77;;;;;;;;;;5020980;28;20189;-69
2023/02/07 04:13:56;;;;;;;51.93;17.13;;;;;;;;;;5029263;28;20223;-70
2023/02/07 04:16:21;;;;;;;49.67;17.53;;;;;;;;;;5023384;28;20186;-69
2023/02/07 04:18:46;;;;;;;47.70;17.57;;;;;;;;;;5031549;28;20191;-69
2023/02/07 04:21:12;;;;;;;54.13;18.27;;;;;;;;;;5015943;28;20643;-69
2023/02/07 04:23:37;;;;;;;56.27;18.70;;;;;;;;;;5014566;28;20369;-67
2023/02/07 04:26:03;;;;;;;56.83;17.80;;;;;;;;;;5015196;28;20193;-68
2023/02/07 04:28:29;;;;;;;45.20;17.43;;;;;;;;;;5023931;28;20198;-69
2023/02/07 04:30:55;;;;;;;48.97;17.37;;;;;;;;;;5021936;28;20225;-68
2023/02/07 04:33:21;;;;;;;49.60;17.37;;;;;;;;;;4984449;28;1153332;-68
2023/02/07 04:36:00;;;;;;;53.47;17.87;;;;;;;;;;5025894;28;20186;-68
2023/02/07 04:38:26;;;;;;;54.07;17.30;;;;;;;;;;5026643;28;20183;-68
2023/02/07 04:40:52;;;;;;;53.33;17.57;;;;;;;;;;5019307;28;20204;-68
2023/02/07 04:43:17;;;;;;;46.70;17.47;;;;;;;;;;5026430;28;20273;-68
2023/02/07 04:45:46;;;;;;;43.10;15.37;;;;;;;;;;5013807;28;20434;-68
2023/02/07 04:48:11;;;;;;;47.93;17.03;;;;;;;;;;5037688;28;20190;-68
2023/02/07 04:50:37;;;;;;;51.83;17.80;;;;;;;;;;5026230;28;20194;-68
2023/02/07 04:53:02;;;;;;;43.73;16.57;;;;;;;;;;5028963;28;20202;-68
2023/02/07 04:55:27;;;;;;;48.40;17.50;;;;;;;;;;5025793;28;20190;-68
2023/02/07 04:57:53;;;;;;;43.03;17.60;;;;;;;;;;5025489;28;20331;-69
2023/02/07 05:00:18;;;;;;;45.97;17.03;;;;;;;;;;5018712;28;20228;-68
2023/02/07 05:02:44;;;;;;;53.03;16.63;;;;;;;;;;5017981;28;20198;-68
2023/02/07 05:05:09;;;;;;;48.03;16.70;;;;;;;;;;5024614;28;20249;-68
2023/02/07 05:07:35;;;;;;;47.83;16.83;;;;;;;;;;5027010;28;20654;-68
2023/02/07 05:10:00;;;;;;;47.67;17.43;;;;;;;;;;5022542;28;20202;-69
2023/02/07 05:12:26;;;;;;;52.10;18.13;;;;;;;;;;5025775;28;20194;-68
2023/02/07 05:14:51;;;;;;;44.27;16.30;;;;;;;;;;5035025;28;20190;-68
2023/02/07 05:17:16;;;;;;;43.37;16.57;;;;;;;;;;5027183;28;20560;-68
2023/02/07 05:19:42;;;;;;;43.43;15.57;;;;;;;;;;5033896;28;21638;-68
2023/02/07 05:22:07;;;;;;;43.23;16.60;;;;;;;;;;5036837;28;20201;-68
2023/02/07 05:24:33;;;;;;;45.60;16.60;;;;;;;;;;5039860;28;20264;-69
2023/02/07 05:26:58;;;;;;;47.23;16.97;;;;;;;;;;5042942;28;20216;-69
2023/02/07 05:29:24;;;;;;;48.63;16.77;;;;;;;;;;5032639;28;20235;-68
2023/02/07 05:34:33;;;;;;;50.67;16.60;;;;;;;;;;5028080;28;20443;-68
2023/02/07 05:36:59;;;;;;;56.57;17.60;;;;;;;;;;5038047;28;20198;-69
2023/02/07 05:39:24;;;;;;;46.73;17.63;;;;;;;;;;5042536;28;20554;-68
2023/02/07 05:41:49;;;;;;;47.37;16.87;;;;;;;;;;5041483;28;20201;-68
2023/02/07 05:44:15;;;;;;;43.07;16.33;;;;;;;;;;5041380;28;20317;-68
2023/02/07 05:46:40;;;;;;;51.50;17.33;;;;;;;;;;5041499;28;20213;-68
2023/02/07 05:49:06;;;;;;;47.37;17.10;;;;;;;;;;5043823;28;20196;-68
2023/02/07 05:51:31;;;;;;;46.13;16.30;;;;;;;;;;5031066;28;20182;-68
2023/02/07 05:53:56;;;;;;;47.90;16.83;;;;;;;;;;5029985;28;20582;-68
2023/02/07 05:56:22;;;;;;;44.03;17.27;;;;;;;;;;5029744;28;20532;-68
2023/02/07 05:58:47;;;;;;;49.93;18.37;;;;;;;;;;5042312;28;20190;-68
2023/02/07 06:01:13;;;;;;;47.80;18.63;;;;;;;;;;5030402;28;20673;-68
2023/02/07 06:03:38;;;;;;;56.87;19.30;;;;;;;;;;5031645;28;20645;-68
2023/02/07 06:06:03;;;;;;;57.87;18.30;;;;;;;;;;5032508;28;20208;-68
2023/02/07 06:08:29;;;;;;;43.67;17.00;;;;;;;;;;5025381;28;20684;-68
2023/02/07 06:10:54;;;;;;;58.73;18.50;;;;;;;;;;5023616;28;20243;-68
2023/02/07 06:13:19;;;;;;;48.27;16.37;;;;;;;;;;5028030;28;20185;-68
2023/02/07 06:15:46;;;;;;;50.47;17.97;;;;;;;;;;5043854;28;20236;-68
2023/02/07 06:18:11;;;;;;;56.73;18.30;;;;;;;;;;5019619;28;20210;-69
2023/02/07 06:20:37;;;;;;;42.87;17.67;;;;;;;;;;5023546;28;20672;-69
2023/02/07 06:23:03;;;;;;;51.33;17.23;;;;;;;;;;5017749;28;20205;-68
2023/02/07 06:25:28;;;;;;;51.60;17.47;;;;;;;;;;5025528;28;20300;-68
2023/02/07 06:27:54;;;;;;;50.37;17.27;;;;;;;;;;5029686;28;20328;-68
2023/02/07 06:30:19;;;;;;;46.53;15.23;;;;;;;;;;5023993;28;20356;-69
2023/02/07 06:32:45;;;;;;;43.87;16.90;;;;;;;;;;5021137;28;20371;-68
2023/02/07 06:35:10;;;;;;;49.50;17.00;;;;;;;;;;5024603;28;20230;-68
2023/02/07 06:37:36;;;;;;;45.80;15.70;;;;;;;;;;5024080;28;20194;-68
2023/02/07 06:40:02;;;;;;;47.67;16.97;;;;;;;;;;5024804;28;20811;-68
2023/02/07 06:42:27;;;;;;;44.53;15.90;;;;;;;;;;5038961;28;20315;-68
2023/02/07 06:44:52;;;;;;;47.63;17.00;;;;;;;;;;5024696;28;20359;-68
2023/02/07 06:47:19;;;;;;;44.47;17.13;;;;;;;;;;5026999;28;20247;-68
2023/02/07 06:49:45;;;;;;;40.77;15.03;;;;;;;;;;5028419;28;20715;-69
2023/02/07 06:52:10;;;;;;;45.03;16.90;;;;;;;;;;5030682;28;20194;-68
2023/02/07 06:54:36;;;;;;;48.83;18.07;;;;;;;;;;5024871;28;20220;-68
2023/02/07 06:57:02;;;;;;;45.63;16.63;;;;;;;;;;5021081;28;20670;-68
2023/02/07 06:59:27;;;;;;;49.33;17.60;;;;;;;;;;5026207;28;20340;-68
2023/02/07 07:01:52;;;;;;;48.37;18.00;;;;;;;;;;5033212;28;20198;-68
2023/02/07 07:04:18;;;;;;;45.50;17.07;;;;;;;;;;5022171;28;20558;-68
2023/02/07 07:06:43;;;;;;;53.80;17.43;;;;;;;;;;5026170;28;20194;-68
2023/02/07 07:09:08;;;;;;;45.33;15.80;;;;;;;;;;5026292;28;20276;-68
2023/02/07 07:11:35;;;;;;;48.30;17.03;;;;;;;;;;5023857;28;20253;-68
2023/02/07 07:14:01;;;;;;;47.27;17.60;;;;;;;;;;5031452;28;20299;-68
2023/02/07 07:16:27;;;;;;;47.17;17.40;;;;;;;;;;5030854;28;20190;-68
2023/02/07 07:18:52;;;;;;;49.13;17.60;;;;;;;;;;5041338;28;20550;-68
2023/02/07 07:21:17;;;;;;;49.23;17.20;;;;;;;;;;5042478;28;20528;-68
2023/02/07 07:23:43;;;;;;;42.67;17.37;;;;;;;;;;5041009;28;20194;-69
2023/02/07 07:26:08;;;;;;;45.63;16.67;;;;;;;;;;5043987;28;20276;-69
2023/02/07 07:28:34;;;;;;;45.07;17.80;;;;;;;;;;5041611;28;20190;-69
2023/02/07 07:31:07;;;;;;;42.93;16.47;;;;;;;;;;5040465;28;20197;-69
2023/02/07 07:33:32;;;;;;;50.30;18.33;;;;;;;;;;5030209;28;20254;-69
2023/02/07 07:35:59;;;;;;;52.87;18.33;;;;;;;;;;5027805;28;20647;-69
2023/02/07 07:38:26;;;;;;;53.47;18.23;;;;;;;;;;5035824;28;20212;-69
2023/02/07 07:40:51;;;;;;;52.57;18.97;;;;;;;;;;5027915;28;20202;-68
2023/02/07 07:43:16;;;;;;;53.13;17.87;;;;;;;;;;5038344;28;20198;-68
2023/02/07 07:45:42;;;;;;;50.20;18.57;;;;;;;;;;5040238;28;20217;-68
2023/02/07 07:48:07;;;;;;;46.33;17.77;;;;;;;;;;5041881;28;20225;-68
2023/02/07 07:50:32;;;;;;;57.73;18.33;;;;;;;;;;5039055;28;20648;-68
2023/02/07 07:52:58;;;;;;;48.73;19.57;;;;;;;;;;5039750;28;20202;-68
2023/02/07 07:55:23;;;;;;;53.97;19.27;;;;;;;;;;5037904;28;20193;-69
2023/02/07 07:57:49;;;;;;;56.10;19.13;;;;;;;;;;5038569;28;20216;-68
2023/02/07 08:00:14;;;;;;;59.20;19.87;;;;;;;;;;5039754;28;20459;-68
2023/02/07 08:02:41;;;;;;;50.13;18.70;;;;;;;;;;5041020;28;20275;-68
2023/02/07 08:05:07;;;;;;;59.23;20.87;;;;;;;;;;5031428;28;20218;-68
2023/02/07 08:07:33;;;;;;;53.67;20.17;;;;;;;;;;5021479;28;20443;-68
2023/02/07 08:09:58;;;;;;;53.80;19.93;;;;;;;;;;5022425;28;20312;-68
2023/02/07 08:12:24;;;;;;;59.77;20.70;;;;;;;;;;5027184;28;20204;-68
2023/02/07 08:14:50;;;;;;;50.97;19.17;;;;;;;;;;5038813;28;20259;-68
2023/02/07 08:17:16;;;;;;;54.93;20.20;;;;;;;;;;5018043;28;20195;-68
2023/02/07 08:19:41;;;;;;;50.90;19.80;;;;;;;;;;5031686;28;20323;-68
2023/02/07 08:22:07;;;;;;;53.87;20.87;;;;;;;;;;5030042;28;20206;-68
2023/02/07 08:24:33;;;;;;;62.47;20.57;;;;;;;;;;5038806;28;20367;-68
2023/02/07 08:26:59;;;;;;;54.37;21.70;;;;;;;;;;5026164;28;20194;-68
2023/02/07 08:29:24;;;;;;;59.63;21.23;;;;;;;;;;5027391;28;20197;-69
2023/02/07 08:31:49;;;;;;;55.43;21.47;;;;;;;;;;5027560;28;20382;-68
2023/02/07 08:34:17;;;;;;;58.13;21.13;;;;;;;;;;5026705;28;20272;-68
2023/02/07 08:36:42;;;;;;;60.30;21.03;;;;;;;;;;5022711;28;20404;-68
2023/02/07 08:39:07;;;;;;;65.10;22.43;;;;;;;;;;5026361;28;20190;-68
2023/02/07 08:41:33;;;;;;;64.43;23.47;;;;;;;;;;5029443;28;20642;-68
2023/02/07 08:43:58;;;;;;;59.83;23.97;;;;;;;;;;5026144;28;20532;-68
2023/02/07 08:46:24;;;;;;;63.03;23.80;;;;;;;;;;5029167;28;20515;-68
2023/02/07 08:48:49;;;;;;;58.73;23.50;;;;;;;;;;5043179;28;20231;-68
2023/02/07 08:51:14;;;;;;;58.00;23.10;;;;;;;;;;5033818;28;20201;-68
2023/02/07 08:53:40;;;;;;;60.87;24.20;;;;;;;;;;5034228;28;20216;-68
2023/02/07 08:56:06;;;;;;;62.60;23.43;;;;;;;;;;5027509;28;20715;-68
2023/02/07 08:58:32;;;;;;;70.20;25.50;;;;;;;;;;5027678;28;20214;-69
2023/02/07 09:00:57;;;;;;;56.60;24.73;;;;;;;;;;5030767;28;20263;-68
2023/02/07 09:03:22;;;;;;;65.47;24.10;;;;;;;;;;5031242;28;20665;-68
2023/02/07 09:05:48;;;;;;;56.47;24.30;;;;;;;;;;5030927;28;20210;-69
2023/02/07 09:08:13;;;;;;;65.17;26.47;;;;;;;;;;5031529;28;20190;-69
2023/02/07 09:10:39;;;;;;;64.50;26.33;;;;;;;;;;5030682;28;20194;-68
2023/02/07 09:13:04;;;;;;;71.70;27.43;;;;;;;;;;5030644;28;20195;-68
2023/02/07 09:15:29;;;;;;;60.30;26.40;;;;;;;;;;5032459;28;20182;-68
2023/02/07 09:17:55;;;;;;;63.63;27.30;;;;;;;;;;5031239;28;20265;-68
2023/02/07 09:20:20;;;;;;;62.10;27.33;;;;;;;;;;5031269;28;20287;-68
2023/02/07 09:25:29;;;;;;;65.37;25.87;;;;;;;;;;5027722;28;20209;-68
2023/02/07 09:27:55;;;;;;;69.30;28.47;;;;;;;;;;5040039;28;20638;-68
2023/02/07 09:30:21;;;;;;;61.07;29.23;;;;;;;;;;5021644;28;20190;-68
2023/02/07 09:32:46;;;;;;;63.10;27.67;;;;;;;;;;5012664;28;20198;-68
2023/02/07 09:35:12;;;;;;;62.67;27.83;;;;;;;;;;5023548;28;20686;-68
2023/02/07 09:37:37;;;;;;;60.53;27.57;;;;;;;;;;5019607;28;20186;-68
2023/02/07 09:40:03;;;;;;;59.33;28.60;;;;;;;;;;5037551;28;20352;-68
2023/02/07 09:42:49;;;;;;;60.77;26.90;;;;;;;;;;5036043;28;20755;-68
2023/02/07 09:45:21;;;;;;;56.40;26.57;;;;;;;;;;5031036;28;20684;-68
2023/02/07 09:47:52;;;;;;;56.37;28.43;;;;;;;;;;5029119;28;20196;-69
2023/02/07 09:50:24;;;;;;;56.10;26.63;;;;;;;;;;5039109;28;20194;-69
2023/02/07 09:52:54;;;;;;;55.30;26.00;;;;;;;;;;5035550;28;20198;-68
2023/02/07 09:55:27;;;;;;;51.33;23.97;;;;;;;;;;5040556;28;20194;-68
2023/02/07 09:58:01;;;;;;;49.40;23.93;;;;;;;;;;5029824;28;20629;-68
2023/02/07 10:00:33;;;;;;;41.93;22.40;;;;;;;;;;5029971;28;20236;-68
2023/02/07 10:03:09;;;;;;;43.47;22.00;;;;;;;;;;5031672;28;20205;-69
2023/02/07 10:05:59;;;;;;;41.23;20.60;;;;;;;;;;5039657;28;20344;-69
2023/02/07 10:08:25;;;;;;;33.30;18.37;;;;;;;;;;5033440;28;20208;-69
2023/02/07 10:11:20;;;;;;;36.87;18.60;;;;;;;;;;5048393;28;20190;-69
2023/02/07 10:14:22;;;;;;;33.37;18.43;;;;;;;;;;5025306;28;20193;-71
2023/02/07 10:17:15;;;;;;;35.10;19.80;;;;;;;;;;5042562;28;20243;-69
2023/02/07 10:20:02;;;;;;;27.83;16.70;;;;;;;;;;5024826;28;20276;-69
2023/02/07 10:22:48;;;;;;;31.67;17.33;;;;;;;;;;5028105;28;20197;-69
2023/02/07 10:25:35;;;;;;;31.27;16.20;;;;;;;;;;5030727;28;20664;-68
2023/02/07 10:28:12;;;;;;;26.30;14.67;;;;;;;;;;5038111;28;20370;-68
2023/02/07 10:30:48;;;;;;;25.53;13.83;;;;;;;;;;5016766;28;20255;-68
2023/02/07 10:33:16;;;;;;;21.53;13.20;;;;;;;;;;5026385;28;20669;-68
2023/02/07 10:35:44;;;;;;;21.53;11.23;;;;;;;;;;5027565;28;20183;-68
2023/02/07 10:38:26;;;;;;;18.23;11.40;;;;;;;;;;5027930;28;20281;-68
2023/02/07 10:40:58;;;;;;;18.70;11.90;;;;;;;;;;5019417;28;20186;-68
2023/02/07 10:43:31;;;;;;;21.57;10.80;;;;;;;;;;5040236;28;20193;-68
2023/02/07 10:46:02;;;;;;;16.83;10.43;;;;;;;;;;5030178;28;20228;-68
2023/02/07 10:48:28;;;;;;;16.40;9.10;;;;;;;;;;5031885;28;20674;-68
2023/02/07 10:50:55;;;;;;;16.13;9.67;;;;;;;;;;5015080;28;20198;-68
2023/02/07 10:53:50;;;;;;;12.50;8.23;;;;;;;;;;5039123;28;20197;-68
2023/02/07 10:56:25;;;;;;;14.03;8.47;;;;;;;;;;5034250;28;20205;-69
2023/02/07 10:58:50;;;;;;;14.23;7.90;;;;;;;;;;5029730;28;20724;-70
2023/02/07 11:01:25;;;;;;;13.47;7.40;;;;;;;;;;5047056;28;20301;-70
2023/02/07 11:03:51;;;;;;;11.43;6.90;;;;;;;;;;5032221;28;20189;-70
2023/02/07 11:06:32;;;;;;;12.70;6.80;;;;;;;;;;5028619;28;20262;-70
2023/02/07 11:09:11;;;;;;;10.57;6.30;;;;;;;;;;5028457;28;20277;-70
2023/02/07 11:11:39;;;;;;;11.07;6.37;;;;;;;;;;5027786;28;20293;-69
2023/02/07 11:14:06;;;;;;;9.53;5.77;;;;;;;;;;5029346;28;20174;-69
2023/02/07 11:16:32;;;;;;;10.60;5.63;;;;;;;;;;5027883;28;20204;-69
2023/02/07 11:19:03;;;;;;;9.60;5.63;;;;;;;;;;5033054;28;20327;-69
2023/02/07 11:21:31;;;;;;;11.17;5.27;;;;;;;;;;5031088;28;20194;-69
2023/02/07 11:24:20;;;;;;;9.07;5.33;;;;;;;;;;5017147;28;20186;-69
2023/02/07 11:26:51;;;;;;;9.20;5.30;;;;;;;;;;5027324;28;20189;-70
2023/02/07 11:29:20;;;;;;;9.73;4.87;;;;;;;;;;5020546;28;20186;-69
2023/02/07 11:31:48;;;;;;;9.07;5.07;;;;;;;;;;5022892;28;20190;-68
2023/02/07 11:34:20;;;;;;;8.37;4.30;;;;;;;;;;5032224;28;20239;-69
2023/02/07 11:36:45;;;;;;;6.33;4.53;;;;;;;;;;5035704;28;20194;-69
2023/02/07 11:39:17;;;;;;;7.40;4.43;;;;;;;;;;5025812;28;20190;-69
2023/02/07 11:41:52;;;;;;;8.13;4.47;;;;;;;;;;5027850;28;20239;-68
2023/02/07 11:44:18;;;;;;;5.33;3.83;;;;;;;;;;5029025;28;20550;-68
2023/02/07 11:46:47;;;;;;;6.43;4.13;;;;;;;;;;5047316;28;20186;-68
2023/02/07 11:49:36;;;;;;;8.17;4.77;;;;;;;;;;5037927;28;20555;-69
2023/02/07 11:52:02;;;;;;;7.27;4.30;;;;;;;;;;5028918;28;20204;-69
2023/02/07 11:54:30;;;;;;;5.47;3.93;;;;;;;;;;5046333;28;20177;-69
2023/02/07 11:57:03;;;;;;;6.37;4.20;;;;;;;;;;5040244;28;20178;-70
2023/02/07 11:59:28;;;;;;;6.37;4.30;;;;;;;;;;5027844;28;20269;-69
2023/02/07 12:01:57;;;;;;;7.37;4.77;;;;;;;;;;5031045;28;20269;-69
2023/02/07 12:04:29;;;;;;;6.23;4.20;;;;;;;;;;5028769;28;20722;-68
2023/02/07 12:07:04;;;;;;;7.57;4.40;;;;;;;;;;5038339;28;20261;-68
2023/02/07 12:09:42;;;;;;;5.97;4.03;;;;;;;;;;5030804;28;20185;-69
2023/02/07 12:12:48;;;;;;;7.20;4.20;;;;;;;;;;5031274;28;20190;-69
2023/02/07 12:15:27;;;;;;;5.80;4.43;;;;;;;;;;5020932;28;20216;-68
2023/02/07 12:18:17;;;;;;;8.70;4.50;;;;;;;;;;5016100;28;20579;-68
2023/02/07 12:20:57;;;;;;;6.57;4.10;;;;;;;;;;5023872;28;20186;-68
2023/02/07 12:23:45;;;;;;;7.17;4.00;;;;;;;;;;5024617;28;20211;-68
2023/02/07 12:26:22;;;;;;;6.27;4.13;;;;;;;;;;5026274;28;20214;-68
2023/02/07 12:28:53;;;;;;;11.73;4.83;;;;;;;;;;5029153;28;20189;-69
2023/02/07 12:31:47;;;;;;;9.00;4.43;;;;;;;;;;5026762;28;20226;-69
2023/02/07 12:34:35;;;;;;;7.13;4.40;;;;;;;;;;5007935;28;20228;-69
2023/02/07 12:37:32;;;;;;;4.83;3.67;;;;;;;;;;5044326;28;20584;-69
2023/02/07 12:40:02;;;;;;;5.80;3.93;;;;;;;;;;5020483;28;20266;-69
2023/02/07 12:42:43;;;;;;;4.93;3.57;;;;;;;;;;5043908;28;20512;-69
2023/02/07 12:45:15;;;;;;;7.07;4.07;;;;;;;;;;5040594;28;20213;-68
2023/02/07 12:47:48;;;;;;;7.07;4.63;;;;;;;;;;5027619;28;20647;-69
2023/02/07 12:50:27;;;;;;;7.03;4.33;;;;;;;;;;5020625;28;20186;-68
2023/02/07 12:53:41;;;;;;;5.47;4.33;;;;;;;;;;5035233;28;20213;-69
2023/02/07 12:56:32;;;;;;;8.00;3.90;;;;;;;;;;5013934;28;20198;-68
2023/02/07 12:59:19;;;;;;;5.97;3.93;;;;;;;;;;5031007;28;20632;-68
2023/02/07 13:02:18;;;;;;;5.23;3.70;;;;;;;;;;5033496;28;20490;-68
2023/02/07 13:04:49;;;;;;;7.13;3.90;;;;;;;;;;5033488;28;20209;-69
2023/02/07 13:07:24;;;;;;;7.30;4.47;;;;;;;;;;5034510;28;20202;-69
2023/02/07 13:10:37;;;;;;;7.00;4.03;;;;;;;;;;5035174;28;20188;-69
2023/02/07 13:13:05;;;;;;;6.33;4.10;;;;;;;;;;5033734;28;20177;-69
2023/02/07 13:15:40;;;;;;;6.40;4.20;;;;;;;;;;5031028;28;20190;-69
2023/02/07 13:18:12;;;;;;;6.20;4.40;;;;;;;;;;5036409;28;20181;-69
2023/02/07 13:20:42;;;;;;;7.50;3.77;;;;;;;;;;5016536;28;20696;-69
2023/02/07 13:23:13;;;;;;;5.60;3.90;;;;;;;;;;5026394;28;20198;-69
2023/02/07 13:25:42;;;;;;;6.50;4.07;;;;;;;;;;5033970;28;20210;-69
2023/02/07 13:28:17;;;;;;;9.10;4.10;;;;;;;;;;5035017;28;20181;-69
2023/02/07 13:30:42;;;;;;;6.93;4.40;;;;;;;;;;5030766;28;20189;-69
2023/02/07 13:33:24;;;;;;;5.13;3.97;;;;;;;;;;5030729;28;20247;-69
2023/02/07 13:35:52;;;;;;;5.13;3.90;;;;;;;;;;5030040;28;20190;-70
2023/02/07 13:38:45;;;;;;;5.10;3.70;;;;;;;;;;5030866;28;20218;-68
2023/02/07 13:41:17;;;;;;;5.93;4.33;;;;;;;;;;5022799;28;20243;-69
2023/02/07 13:44:19;;;;;;;7.77;4.20;;;;;;;;;;5040354;28;20566;-69
2023/02/07 13:46:54;;;;;;;5.87;3.80;;;;;;;;;;5021169;28;20680;-69
2023/02/07 13:49:48;;;;;;;5.70;3.80;;;;;;;;;;5045448;28;20260;-69
2023/02/07 13:52:40;;;;;;;5.63;3.80;;;;;;;;;;5022625;28;20695;-69
2023/02/07 13:55:27;;;;;;;5.70;4.10;;;;;;;;;;5021728;28;20202;-69
2023/02/07 14:00:47;;;;;;;6.40;4.37;;;;;;;;;;5029724;28;20241;-69
2023/02/07 14:03:31;;;;;;;6.83;4.50;;;;;;;;;;5032074;28;20502;-69
2023/02/07 14:06:19;;;;;;;6.50;4.33;;;;;;;;;;5017694;28;20214;-69
2023/02/07 14:08:56;;;;;;;7.90;4.40;;;;;;;;;;5024399;28;20190;-69
2023/02/07 14:11:49;;;;;;;5.13;4.23;;;;;;;;;;5024343;28;20198;-69
2023/02/07 14:14:39;;;;;;;6.47;4.17;;;;;;;;;;5020687;28;20205;-69
2023/02/07 14:17:05;;;;;;;7.03;4.50;;;;;;;;;;5028657;28;20227;-69
2023/02/07 14:19:40;;;;;;;6.40;4.17;;;;;;;;;;5029361;28;20204;-69
2023/02/07 14:22:20;;;;;;;6.13;4.73;;;;;;;;;;5038000;28;20879;-69
2023/02/07 14:24:58;;;;;;;8.17;4.53;;;;;;;;;;5025986;28;20221;-69
2023/02/07 14:28:01;;;;;;;7.23;5.07;;;;;;;;;;5040756;28;20197;-69
2023/02/07 14:30:35;;;;;;;7.43;4.27;;;;;;;;;;5007982;28;20201;-69
2023/02/07 14:33:16;;;;;;;6.43;4.70;;;;;;;;;;5040031;28;20528;-69
2023/02/07 14:36:01;;;;;;;8.87;4.37;;;;;;;;;;5035614;28;20194;-69
2023/02/07 14:38:32;;;;;;;7.13;4.20;;;;;;;;;;5033395;28;20644;-69
2023/02/07 14:41:07;;;;;;;7.47;4.17;;;;;;;;;;5032219;28;20664;-69
2023/02/07 14:43:40;;;;;;;6.13;4.43;;;;;;;;;;5034231;28;20217;-70
2023/02/07 14:46:10;;;;;;;6.93;3.80;;;;;;;;;;5039529;28;20224;-69
2023/02/07 14:48:51;;;;;;;9.87;4.70;;;;;;;;;;5035562;28;20285;-70
2023/02/07 14:51:28;;;;;;;6.00;4.10;;;;;;;;;;5038956;28;20213;-69
2023/02/07 14:54:05;;;;;;;5.93;3.80;;;;;;;;;;5040590;28;20536;-69
2023/02/07 14:56:57;;;;;;;6.53;4.03;;;;;;;;;;5042812;28;20197;-69